createdAt,value
2022-07-25T00:00:47.372Z,100225.16
2022-07-25T00:03:18.547Z,100225.63
2022-07-25T00:05:46.878Z,100221.25
2022-07-25T00:08:16.100Z,100210.50
2022-07-25T00:10:44.423Z,100211.31
2022-07-25T00:13:13.252Z,100223.97
2022-07-25T00:15:42.006Z,100197.75
2022-07-25T00:18:10.789Z,100193.66
2022-07-25T00:20:39.378Z,100189.34
2022-07-25T00:23:08.079Z,100185.03
2022-07-25T00:25:37.365Z,100185.84
2022-07-25T00:28:06.312Z,100175.75
2022-07-25T00:30:34.881Z,100171.72
2022-07-25T00:33:03.330Z,100168.66
2022-07-25T00:35:32.193Z,100164.31
2022-07-25T00:38:00.121Z,100156.63
2022-07-25T00:40:29.163Z,100167.47
2022-07-25T00:42:58.360Z,100156.84
2022-07-25T00:45:26.038Z,100158.50
2022-07-25T00:47:53.957Z,100155.84
2022-07-25T00:50:22.649Z,100161.38
2022-07-25T00:52:51.395Z,100159.31
2022-07-25T00:55:19.851Z,100161.03
2022-07-25T00:57:47.784Z,100162.13
2022-07-25T01:00:19.537Z,100152.38
2022-07-25T01:02:48.480Z,100164.28
2022-07-25T01:05:19.082Z,100156.41
2022-07-25T01:07:48.533Z,100161.50
2022-07-25T01:10:16.772Z,100151.53
2022-07-25T01:12:54.886Z,100154.00
2022-07-25T01:15:25.117Z,100149.72
2022-07-25T01:17:53.268Z,100162.94
2022-07-25T01:20:27.953Z,100154.94
2022-07-25T01:22:56.674Z,100156.47
2022-07-25T01:25:25.290Z,100163.00
2022-07-25T01:27:55.710Z,100157.38
2022-07-25T01:30:25.806Z,100163.63
2022-07-25T01:32:55.144Z,100160.84
2022-07-25T01:35:24.633Z,100148.69
2022-07-25T01:37:53.411Z,100145.44
2022-07-25T01:40:21.319Z,100150.31
2022-07-25T01:42:50.007Z,100140.84
2022-07-25T01:45:17.889Z,100136.22
2022-07-25T01:47:45.819Z,100142.72
2022-07-25T01:50:13.789Z,100133.00
2022-07-25T01:52:44.304Z,100134.84
2022-07-25T01:55:12.249Z,100125.09
2022-07-25T01:57:41.335Z,100120.81
2022-07-25T02:00:18.344Z,100110.78
2022-07-25T02:02:46.877Z,100111.00
2022-07-25T02:05:15.768Z,100115.63
2022-07-25T02:07:44.863Z,100102.91
2022-07-25T02:10:14.356Z,100105.34
2022-07-25T02:12:42.265Z,100109.13
2022-07-25T02:15:10.776Z,100095.56
2022-07-25T02:17:39.835Z,100094.53
2022-07-25T02:20:08.509Z,100097.13
2022-07-25T02:22:37.280Z,100096.75
2022-07-25T02:25:10.201Z,100098.72
2022-07-25T02:27:38.721Z,100093.25
2022-07-25T02:30:07.871Z,100093.34
2022-07-25T02:36:16.257Z,100087.31
2022-07-25T02:38:44.993Z,100084.66
2022-07-25T02:41:14.168Z,100082.56
2022-07-25T02:43:42.962Z,100082.06
2022-07-25T02:46:12.252Z,100075.41
2022-07-25T02:48:40.988Z,100088.53
2022-07-25T02:51:09.261Z,100078.50
2022-07-25T02:53:56.688Z,100081.75
2022-07-25T02:56:32.058Z,100082.75
2022-07-25T02:59:00.245Z,100076.31
2022-07-25T03:01:28.726Z,100074.44
2022-07-25T03:03:57.430Z,100068.09
2022-07-25T03:06:27.472Z,100072.19
2022-07-25T03:08:56.283Z,100068.09
2022-07-25T03:11:24.402Z,100065.22
2022-07-25T03:13:56.147Z,100058.56
2022-07-25T03:16:24.393Z,100055.63
2022-07-25T03:18:53.344Z,100051.41
2022-07-25T03:21:21.279Z,100051.16
2022-07-25T03:24:03.761Z,100048.97
2022-07-25T03:27:35.709Z,100047.38
2022-07-25T03:30:05.968Z,100042.69
2022-07-25T03:32:33.782Z,100043.63
2022-07-25T03:35:03.372Z,100044.47
2022-07-25T03:37:33.210Z,100045.81
2022-07-25T03:40:01.659Z,100032.94
2022-07-25T03:42:34.979Z,100042.47
2022-07-25T03:45:08.338Z,100040.19
2022-07-25T03:47:36.224Z,100034.06
2022-07-25T03:50:04.400Z,100031.28
2022-07-25T03:52:33.186Z,100033.47
2022-07-25T03:55:01.220Z,100031.47
2022-07-25T03:57:29.077Z,100027.69
2022-07-25T03:59:57.931Z,100023.94
2022-07-25T04:02:31.241Z,100013.13
2022-07-25T04:04:59.318Z,100009.81
2022-07-25T04:07:27.912Z,100006.03
2022-07-25T04:09:56.653Z,100003.75
2022-07-25T04:12:24.582Z,100003.53
2022-07-25T04:14:52.694Z,100000.28
2022-07-25T04:17:20.527Z,99999.97
2022-07-25T04:19:52.555Z,99992.28
2022-07-25T04:23:24.516Z,100000.91
2022-07-25T04:25:52.464Z,99994.53
2022-07-25T04:28:20.689Z,99999.22
2022-07-25T04:30:49.313Z,99994.66
2022-07-25T04:33:18.148Z,99989.56
2022-07-25T04:35:48.081Z,99996.34
2022-07-25T04:38:16.834Z,99986.81
2022-07-25T04:40:44.927Z,99986.41
2022-07-25T04:43:13.730Z,99983.44
2022-07-25T04:45:42.349Z,99980.69
2022-07-25T04:48:11.264Z,99989.88
2022-07-25T04:50:39.263Z,99985.47
2022-07-25T04:53:08.782Z,99984.78
2022-07-25T04:55:38.952Z,99979.25
2022-07-25T04:58:07.426Z,99976.00
2022-07-25T05:00:35.490Z,99966.00
2022-07-25T05:03:04.238Z,99968.72
2022-07-25T05:05:32.791Z,99969.00
2022-07-25T05:08:01.107Z,99966.34
2022-07-25T05:10:33.054Z,99963.66
2022-07-25T05:13:00.957Z,99965.75
2022-07-25T05:15:29.977Z,99956.22
2022-07-25T05:17:57.895Z,99959.69
2022-07-25T05:21:29.957Z,99962.41
2022-07-25T05:23:59.190Z,99960.03
2022-07-25T05:26:28.437Z,99952.31
2022-07-25T05:28:57.015Z,99946.81
2022-07-25T05:31:25.837Z,99961.09
2022-07-25T05:33:54.479Z,99950.94
2022-07-25T05:36:22.996Z,99932.81
2022-07-25T05:38:51.432Z,99937.59
2022-07-25T05:41:21.409Z,99936.94
2022-07-25T05:43:54.036Z,99922.13
2022-07-25T05:46:22.278Z,99916.97
2022-07-25T05:48:53.927Z,99927.81
2022-07-25T05:51:26.835Z,99931.16
2022-07-25T05:53:55.436Z,99932.06
2022-07-25T05:56:23.560Z,99927.84
2022-07-25T05:58:52.755Z,99921.38
2022-07-25T06:01:20.541Z,99922.06
2022-07-25T06:03:48.539Z,99930.56
2022-07-25T06:06:16.533Z,99921.97
2022-07-25T06:08:45.355Z,99935.91
2022-07-25T06:11:13.356Z,99933.31
2022-07-25T06:13:41.290Z,99927.25
2022-07-25T06:16:11.107Z,99929.50
2022-07-25T06:18:39.144Z,99928.69
2022-07-25T06:21:07.730Z,99936.69
2022-07-25T06:23:35.361Z,99924.28
2022-07-25T06:26:03.074Z,99918.28
2022-07-25T06:28:30.830Z,99930.22
2022-07-25T06:30:58.425Z,99912.47
2022-07-25T06:33:27.464Z,99918.78
2022-07-25T06:35:55.136Z,99916.69
2022-07-25T06:38:22.803Z,99912.72
2022-07-25T06:40:50.436Z,99913.53
2022-07-25T06:43:18.163Z,99911.75
2022-07-25T06:45:47.448Z,99895.47
2022-07-25T06:48:15.759Z,99898.38
2022-07-25T06:50:44.845Z,99893.53
2022-07-25T06:53:12.659Z,99894.16
2022-07-25T06:55:40.350Z,99889.66
2022-07-25T06:58:08.308Z,99897.97
2022-07-25T07:00:37.056Z,99895.16
2022-07-25T07:03:07.060Z,99897.72
2022-07-25T07:05:37.755Z,99891.22
2022-07-25T07:08:10.442Z,99886.69
2022-07-25T07:10:40.401Z,99890.53
2022-07-25T07:13:11.548Z,99895.66
2022-07-25T07:15:41.130Z,99896.28
2022-07-25T07:18:09.145Z,99900.59
2022-07-25T07:20:37.266Z,99897.28
2022-07-25T07:23:05.681Z,99889.25
2022-07-25T07:25:35.339Z,99895.25
2022-07-25T07:28:03.659Z,99892.09
2022-07-25T07:30:58.525Z,99895.03
2022-07-25T07:33:20.796Z,99886.56
2022-07-25T07:35:48.689Z,99887.56
2022-07-25T07:38:18.129Z,99901.00
2022-07-25T07:41:47.005Z,99893.50
2022-07-25T07:44:16.669Z,99887.38
2022-07-25T07:46:44.653Z,99882.50
2022-07-25T07:49:13.548Z,99884.53
2022-07-25T07:51:41.288Z,99881.78
2022-07-25T07:54:26.718Z,99888.66
2022-07-25T07:56:55.288Z,99877.84
2022-07-25T07:59:27.912Z,99883.56
2022-07-25T08:01:57.199Z,99883.81
2022-07-25T08:04:25.424Z,99882.84
2022-07-25T08:06:54.000Z,99871.50
2022-07-25T08:09:23.867Z,99877.25
2022-07-25T08:11:52.023Z,99869.03
2022-07-25T08:14:20.781Z,99872.09
2022-07-25T08:16:53.499Z,99875.34
2022-07-25T08:19:21.962Z,99874.03
2022-07-25T08:21:50.042Z,99883.19
2022-07-25T08:24:18.035Z,99870.84
2022-07-25T08:26:46.502Z,99866.03
2022-07-25T08:29:21.237Z,99868.78
2022-07-25T08:31:55.285Z,99868.66
2022-07-25T08:34:23.922Z,99859.81
2022-07-25T08:36:51.687Z,99874.94
2022-07-25T08:39:19.454Z,99865.97
2022-07-25T08:41:47.696Z,99866.13
2022-07-25T08:44:17.093Z,99866.06
2022-07-25T08:46:45.644Z,99871.25
2022-07-25T08:49:18.892Z,99876.56
2022-07-25T08:51:47.629Z,99875.84
2022-07-25T08:54:19.689Z,99873.78
2022-07-25T08:56:52.703Z,99873.22
2022-07-25T08:59:20.689Z,99877.28
2022-07-25T09:01:49.466Z,99869.31
2022-07-25T09:04:21.370Z,99870.94
2022-07-25T09:06:54.843Z,99882.50
2022-07-25T09:09:32.296Z,99871.09
2022-07-25T09:12:01.153Z,99867.88
2022-07-25T09:14:30.022Z,99859.72
2022-07-25T09:16:59.137Z,99865.53
2022-07-25T09:19:33.191Z,99863.94
2022-07-25T09:22:03.536Z,99862.25
2022-07-25T09:24:33.534Z,99856.81
2022-07-25T09:27:10.140Z,99854.97
2022-07-25T09:29:42.682Z,99855.72
2022-07-25T09:32:18.888Z,99857.84
2022-07-25T09:34:49.614Z,99846.00
2022-07-25T09:38:21.988Z,99830.16
2022-07-25T09:40:57.540Z,99842.38
2022-07-25T09:43:25.721Z,99832.56
2022-07-25T09:49:41.659Z,99844.56
2022-07-25T09:52:16.754Z,99842.19
2022-07-25T09:54:45.721Z,99843.56
2022-07-25T09:57:13.681Z,99846.34
2022-07-25T09:59:41.713Z,99842.81
2022-07-25T10:02:16.975Z,99856.31
2022-07-25T10:04:47.467Z,99858.00
2022-07-25T10:07:20.886Z,99847.47
2022-07-25T10:09:51.187Z,99839.66
2022-07-25T10:12:21.168Z,99845.53
2022-07-25T10:15:06.551Z,99837.25
2022-07-25T10:17:34.715Z,99838.09
2022-07-25T10:20:04.078Z,99843.53
2022-07-25T10:22:56.810Z,99844.69
2022-07-25T10:25:25.675Z,99850.09
2022-07-25T10:28:00.065Z,99847.97
2022-07-25T10:30:30.331Z,99849.00
2022-07-25T10:32:59.713Z,99855.84
2022-07-25T10:35:28.639Z,99848.69
2022-07-25T10:37:59.353Z,99846.28
2022-07-25T10:40:33.687Z,99843.31
2022-07-25T10:43:09.968Z,99861.00
2022-07-25T10:45:45.178Z,99846.84
2022-07-25T10:48:21.149Z,99854.59
2022-07-25T10:50:55.854Z,99854.47
2022-07-25T10:53:38.243Z,99854.47
2022-07-25T10:56:09.318Z,99864.81
2022-07-25T10:58:44.484Z,99857.56
2022-07-25T11:01:14.946Z,99864.38
2022-07-25T11:03:45.690Z,99870.91
2022-07-25T11:06:15.173Z,99868.78
2022-07-25T11:08:45.998Z,99873.97
2022-07-25T11:11:14.430Z,99869.94
2022-07-25T11:13:43.434Z,99872.03
2022-07-25T11:16:12.341Z,99867.69
2022-07-25T11:18:42.549Z,99868.38
2022-07-25T11:21:11.364Z,99858.50
2022-07-25T11:23:39.229Z,99853.13
2022-07-25T11:26:10.199Z,99845.00
2022-07-25T11:28:42.278Z,99863.34
2022-07-25T11:31:10.971Z,99854.72
2022-07-25T11:33:42.119Z,99860.81
2022-07-25T11:36:11.740Z,99872.53
2022-07-25T11:39:44.083Z,99855.06
2022-07-25T11:42:16.369Z,99863.38
2022-07-25T11:44:47.883Z,99860.97
2022-07-25T11:47:30.117Z,99868.59
2022-07-25T11:49:59.762Z,99867.16
2022-07-25T11:52:31.191Z,99863.31
2022-07-25T11:55:00.468Z,99867.28
2022-07-25T11:57:30.842Z,99862.13
2022-07-25T12:00:01.360Z,99862.72
2022-07-25T12:02:32.094Z,99866.63
2022-07-25T12:05:01.356Z,99868.28
2022-07-25T12:07:40.148Z,99877.81
2022-07-25T12:10:10.688Z,99870.72
2022-07-25T12:12:48.633Z,99872.22
2022-07-25T12:15:17.941Z,99877.22
2022-07-25T12:17:47.255Z,99871.31
2022-07-25T12:20:19.825Z,99875.16
2022-07-25T12:22:48.888Z,99885.88
2022-07-25T12:25:17.651Z,99903.06
2022-07-25T12:27:50.308Z,99894.34
2022-07-25T12:30:19.597Z,99892.00
2022-07-25T12:32:48.297Z,99897.88
2022-07-25T12:35:17.308Z,99905.66
2022-07-25T12:37:45.629Z,99890.41
2022-07-25T12:40:14.882Z,99900.72
2022-07-25T12:42:44.066Z,99898.53
2022-07-25T12:45:17.158Z,99895.41
2022-07-25T12:47:45.496Z,99906.53
2022-07-25T12:50:14.937Z,99896.81
2022-07-25T12:52:44.168Z,99900.94
2022-07-25T12:55:13.721Z,99918.00
2022-07-25T12:57:42.169Z,99911.50
2022-07-25T13:00:12.913Z,99913.03
2022-07-25T13:02:42.402Z,99922.13
2022-07-25T13:05:11.800Z,99917.50
2022-07-25T13:07:40.721Z,99925.25
2022-07-25T13:10:09.310Z,99925.75
2022-07-25T13:12:37.059Z,99925.13
2022-07-25T13:15:05.530Z,99913.91
2022-07-25T13:17:33.954Z,99918.69
2022-07-25T13:20:07.336Z,99914.91
2022-07-25T13:22:35.580Z,99924.56
2022-07-25T13:25:04.641Z,99925.34
2022-07-25T13:27:33.385Z,99919.38
2022-07-25T13:30:03.064Z,99921.78
2022-07-25T13:33:32.271Z,99930.56
2022-07-25T13:36:02.488Z,99932.72
2022-07-25T13:38:31.142Z,99937.59
2022-07-25T13:42:00.312Z,99922.31
2022-07-25T13:44:28.172Z,99942.09
2022-07-25T13:46:57.451Z,99944.50
2022-07-25T13:49:25.424Z,99945.59
2022-07-25T13:51:55.219Z,99944.50
2022-07-25T13:54:23.498Z,99935.84
2022-07-25T13:56:53.094Z,99942.53
2022-07-25T13:59:22.155Z,99938.13
2022-07-25T14:01:50.692Z,99942.81
2022-07-25T14:04:19.880Z,99942.28
2022-07-25T14:06:51.960Z,99955.84
2022-07-25T14:09:24.389Z,99951.13
2022-07-25T14:12:57.258Z,99951.53
2022-07-25T14:15:25.119Z,99944.28
2022-07-25T14:17:53.679Z,99944.81
2022-07-25T14:20:21.705Z,99928.19
2022-07-25T14:22:50.768Z,99947.84
2022-07-25T14:25:20.245Z,99931.53
2022-07-25T14:27:48.299Z,99927.06
2022-07-25T14:30:16.897Z,99926.38
2022-07-25T14:32:45.584Z,99924.75
2022-07-25T14:35:14.060Z,99931.84
2022-07-25T14:37:42.468Z,99924.38
2022-07-25T14:40:14.634Z,99931.97
2022-07-25T14:42:44.800Z,99935.41
2022-07-25T14:45:13.364Z,99952.72
2022-07-25T14:48:45.232Z,99961.59
2022-07-25T14:51:13.211Z,99967.44
2022-07-25T14:53:42.114Z,99965.47
2022-07-25T14:56:10.856Z,99982.50
2022-07-25T14:58:43.074Z,99993.63
2022-07-25T15:01:11.414Z,100001.34
2022-07-25T15:03:40.157Z,99994.69
2022-07-25T15:06:10.320Z,99989.69
2022-07-25T15:08:38.830Z,99994.44
2022-07-25T15:11:08.217Z,100004.25
2022-07-25T15:13:36.522Z,100010.34
2022-07-25T15:16:07.957Z,100013.94
2022-07-25T15:18:58.558Z,100012.09
2022-07-25T15:21:25.567Z,100005.00
2022-07-25T15:23:53.989Z,100021.84
2022-07-25T15:26:21.854Z,100005.56
2022-07-25T15:28:50.393Z,100026.19
2022-07-25T15:31:21.352Z,100026.72
2022-07-25T15:33:49.792Z,100024.19
2022-07-25T15:36:20.068Z,100016.13
2022-07-25T15:38:47.907Z,100016.16
2022-07-25T15:41:16.329Z,100034.94
2022-07-25T15:43:44.100Z,100037.16
2022-07-25T15:46:12.622Z,100020.25
2022-07-25T15:48:42.028Z,100034.59
2022-07-25T15:51:10.043Z,100050.25
2022-07-25T15:53:38.152Z,100044.88
2022-07-25T15:56:06.357Z,100052.09
2022-07-25T15:58:34.623Z,100038.25
2022-07-25T16:01:03.422Z,100045.91
2022-07-25T16:03:32.874Z,100045.22
2022-07-25T16:06:04.730Z,100044.03
2022-07-25T16:08:32.547Z,100030.84
2022-07-25T16:11:01.048Z,100033.25
2022-07-25T16:13:29.701Z,100028.13
2022-07-25T16:15:59.005Z,100030.06
2022-07-25T16:18:27.873Z,100035.63
2022-07-25T16:20:57.341Z,100042.25
2022-07-25T16:23:28.162Z,100035.50
2022-07-25T16:25:56.747Z,100036.38
2022-07-25T16:28:24.461Z,100031.16
2022-07-25T16:30:54.186Z,100041.19
2022-07-25T16:33:21.974Z,100040.84
2022-07-25T16:35:49.848Z,100052.00
2022-07-25T16:38:18.576Z,100044.75
2022-07-25T16:40:47.867Z,100045.53
2022-07-25T16:44:19.719Z,100043.63
2022-07-25T16:46:47.968Z,100035.38
2022-07-25T16:49:16.311Z,100032.88
2022-07-25T16:51:44.285Z,100035.53
2022-07-25T16:54:13.150Z,100030.50
2022-07-25T16:56:43.469Z,100030.44
2022-07-25T16:59:11.743Z,100033.06
2022-07-25T17:01:40.236Z,100047.38
2022-07-25T17:04:08.384Z,100046.75
2022-07-25T17:06:38.140Z,100039.94
2022-07-25T17:09:07.541Z,100047.69
2022-07-25T17:11:37.329Z,100051.53
2022-07-25T17:14:06.495Z,100059.25
2022-07-25T17:16:35.277Z,100057.94
2022-07-25T17:19:04.451Z,100059.25
2022-07-25T17:21:33.215Z,100047.63
2022-07-25T17:24:01.188Z,100056.66
2022-07-25T17:26:29.897Z,100060.44
2022-07-25T17:28:59.703Z,100058.72
2022-07-25T17:31:29.710Z,100050.91
2022-07-25T17:33:57.750Z,100057.72
2022-07-25T17:36:25.719Z,100066.09
2022-07-25T17:38:53.499Z,100062.66
2022-07-25T17:42:25.560Z,100059.91
2022-07-25T17:44:54.052Z,100060.31
2022-07-25T17:47:24.564Z,100065.22
2022-07-25T17:49:52.825Z,100068.81
2022-07-25T17:52:20.598Z,100072.66
2022-07-25T17:54:48.765Z,100073.41
2022-07-25T17:57:17.388Z,100073.00
2022-07-25T17:59:45.492Z,100068.34
2022-07-25T18:02:14.289Z,100067.03
2022-07-25T18:04:46.406Z,100076.00
2022-07-25T18:07:15.133Z,100075.66
2022-07-25T18:09:42.977Z,100072.03
2022-07-25T18:12:11.805Z,100070.38
2022-07-25T18:14:39.641Z,100069.63
2022-07-25T18:17:09.254Z,100059.75
2022-07-25T18:19:38.031Z,100060.13
2022-07-25T18:22:10.881Z,100064.03
2022-07-25T18:24:38.849Z,100054.53
2022-07-25T18:27:08.277Z,100066.44
2022-07-25T18:29:38.789Z,100061.97
2022-07-25T18:32:07.556Z,100061.63
2022-07-25T18:34:36.516Z,100073.41
2022-07-25T18:37:04.459Z,100076.91
2022-07-25T18:39:37.393Z,100078.38
2022-07-25T18:42:06.418Z,100081.78
2022-07-25T18:44:34.255Z,100081.34
2022-07-25T18:47:02.128Z,100083.09
2022-07-25T18:49:30.530Z,100086.81
2022-07-25T18:51:58.456Z,100086.44
2022-07-25T18:54:26.118Z,100092.75
2022-07-25T18:56:56.231Z,100086.69
2022-07-25T18:59:25.381Z,100099.16
2022-07-25T19:01:55.155Z,100106.06
2022-07-25T19:04:23.680Z,100101.31
2022-07-25T19:06:52.162Z,100108.41
2022-07-25T19:09:20.068Z,100114.47
2022-07-25T19:11:49.059Z,100114.44
2022-07-25T19:14:23.039Z,100127.78
2022-07-25T19:16:51.693Z,100126.19
2022-07-25T19:19:21.384Z,100123.56
2022-07-25T19:21:51.579Z,100116.06
2022-07-25T19:24:19.960Z,100130.31
2022-07-25T19:26:48.840Z,100139.44
2022-07-25T19:29:20.008Z,100146.31
2022-07-25T19:31:49.112Z,100152.03
2022-07-25T19:34:17.518Z,100156.66
2022-07-25T19:36:46.470Z,100158.66
2022-07-25T19:39:16.017Z,100164.69
2022-07-25T19:41:47.101Z,100178.06
2022-07-25T19:44:16.222Z,100171.22
2022-07-25T19:46:46.467Z,100177.13
2022-07-25T19:50:18.577Z,100172.03
2022-07-25T19:52:46.928Z,100177.19
2022-07-25T19:55:14.619Z,100179.38
2022-07-25T19:57:43.945Z,100179.53
2022-07-25T20:00:12.513Z,100192.88
2022-07-25T20:02:44.922Z,100189.06
2022-07-25T20:05:12.792Z,100194.97
2022-07-25T20:07:40.513Z,100194.53
2022-07-25T20:10:10.149Z,100195.59
2022-07-25T20:12:38.100Z,100191.34
2022-07-25T20:15:07.229Z,100197.78
2022-07-25T20:17:35.939Z,100196.03
2022-07-25T20:20:07.329Z,100197.66
2022-07-25T20:22:37.936Z,100205.41
2022-07-25T20:25:06.458Z,100199.50
2022-07-25T20:27:35.361Z,100202.28
2022-07-25T20:30:04.627Z,100204.59
2022-07-25T20:32:33.115Z,100199.50
2022-07-25T20:35:01.279Z,100217.56
2022-07-25T20:37:30.494Z,100207.59
2022-07-25T20:39:59.455Z,100208.19
2022-07-25T20:42:27.445Z,100210.84
2022-07-25T20:44:56.597Z,100212.19
2022-07-25T20:47:25.357Z,100219.84
2022-07-25T20:49:53.941Z,100212.47
2022-07-25T20:52:21.667Z,100214.69
2022-07-25T20:54:50.997Z,100215.50
2022-07-25T20:57:19.572Z,100213.56
2022-07-25T20:59:50.756Z,100219.00
2022-07-25T21:02:18.966Z,100214.69
2022-07-25T21:04:49.029Z,100226.44
2022-07-25T21:07:17.089Z,100229.22
2022-07-25T21:09:45.426Z,100229.78
2022-07-25T21:12:17.537Z,100226.25
2022-07-25T21:14:46.013Z,100227.59
2022-07-25T21:17:13.835Z,100229.00
2022-07-25T21:19:42.576Z,100232.00
2022-07-25T21:22:11.213Z,100231.81
2022-07-25T21:24:39.550Z,100238.38
2022-07-25T21:27:07.593Z,100240.06
2022-07-25T21:29:37.646Z,100236.25
2022-07-25T21:32:07.420Z,100234.63
2022-07-25T21:34:35.336Z,100238.69
2022-07-25T21:37:04.305Z,100237.28
2022-07-25T21:39:33.192Z,100243.31
2022-07-25T21:42:02.141Z,100242.00
2022-07-25T21:44:30.350Z,100250.41
2022-07-25T21:46:59.637Z,100251.53
2022-07-25T21:49:44.941Z,100248.88
2022-07-25T21:52:14.332Z,100257.03
2022-07-25T21:54:42.645Z,100257.84
2022-07-25T21:57:13.761Z,100257.88
2022-07-25T21:59:42.031Z,100259.56
2022-07-25T22:02:11.267Z,100258.19
2022-07-25T22:04:40.627Z,100256.53
2022-07-25T22:07:08.671Z,100259.25
2022-07-25T22:09:36.917Z,100267.91
2022-07-25T22:12:06.970Z,100260.28
2022-07-25T22:14:34.779Z,100268.22
2022-07-25T22:17:02.786Z,100266.31
2022-07-25T22:19:32.312Z,100270.66
2022-07-25T22:22:01.179Z,100265.75
2022-07-25T22:24:28.815Z,100275.28
2022-07-25T22:26:58.556Z,100278.31
2022-07-25T22:29:27.004Z,100278.31
2022-07-25T22:31:55.407Z,100288.41
2022-07-25T22:34:25.035Z,100286.25
2022-07-25T22:36:56.573Z,100285.69
2022-07-25T22:39:24.781Z,100290.34
2022-07-25T22:41:52.724Z,100280.84
2022-07-25T22:44:20.459Z,100287.66
2022-07-25T22:46:48.426Z,100286.03
2022-07-25T22:49:18.060Z,100286.56
2022-07-25T22:51:46.509Z,100296.91
2022-07-25T22:54:15.928Z,100294.19
2022-07-25T22:56:44.730Z,100299.63
2022-07-25T22:59:12.685Z,100293.66
2022-07-25T23:01:40.388Z,100300.19
2022-07-25T23:04:08.549Z,100298.03
2022-07-25T23:07:41.475Z,100296.97
2022-07-25T23:10:12.331Z,100294.81
2022-07-25T23:12:40.179Z,100302.97
2022-07-25T23:15:09.102Z,100298.63
2022-07-25T23:17:37.980Z,100301.09
2022-07-25T23:20:07.342Z,100298.06
2022-07-25T23:22:34.997Z,100301.91
2022-07-25T23:25:02.913Z,100304.38
2022-07-25T23:27:33.924Z,100302.19
2022-07-25T23:30:04.480Z,100306.25
2022-07-25T23:32:32.706Z,100308.97
2022-07-25T23:35:01.354Z,100306.56
2022-07-25T23:37:29.982Z,100310.66
2022-07-25T23:43:57.214Z,100312.53
2022-07-25T23:46:29.401Z,100306.56
2022-07-25T23:49:00.541Z,100314.19
2022-07-25T23:51:28.336Z,100303.31
2022-07-25T23:53:56.044Z,100306.84
2022-07-25T23:56:23.949Z,100309.31
2022-07-25T23:58:55.018Z,100315.03
